createdAt,value
2019-04-25T00:04:11.481Z,60.17
2019-04-25T00:09:17.452Z,60.22
2019-04-25T00:14:22.627Z,60.23
2019-04-25T00:19:26.658Z,60.44
2019-04-25T00:24:48.139Z,60.56
2019-04-25T00:29:52.007Z,60.22
2019-04-25T00:34:55.681Z,60.45
2019-04-25T00:39:59.306Z,60.59
2019-04-25T00:45:02.891Z,60.79
2019-04-25T00:50:06.956Z,60.43
2019-04-25T00:55:11.631Z,60.59
2019-04-25T01:00:23.780Z,60.68
2019-04-25T01:05:27.359Z,60.93
2019-04-25T01:10:31.604Z,61.07
2019-04-25T01:15:35.284Z,61.24
2019-04-25T01:20:38.855Z,61.38
2019-04-25T01:25:44.573Z,61.49
2019-04-25T01:30:47.918Z,61.74
2019-04-25T01:35:55.803Z,62.04
2019-04-25T01:41:00.935Z,62.27
2019-04-25T01:46:04.773Z,62.54
2019-04-25T01:51:08.365Z,62.78
2019-04-25T01:56:13.542Z,63.07
2019-04-25T02:01:17.295Z,63.12
2019-04-25T02:06:20.913Z,63.33
2019-04-25T02:11:26.098Z,63.78
2019-04-25T02:16:29.964Z,63.86
2019-04-25T02:21:33.591Z,64.04
2019-04-25T02:26:37.236Z,64.15
2019-04-25T02:31:40.857Z,64.48
2019-04-25T02:36:47.086Z,64.92
2019-04-25T02:41:49.926Z,64.99
2019-04-25T02:47:11.515Z,65.04
2019-04-25T02:52:24.780Z,65.46
2019-04-25T02:57:28.154Z,65.67
2019-04-25T03:02:31.708Z,65.77
2019-04-25T03:07:35.312Z,65.73
2019-04-25T03:12:38.865Z,65.64
2019-04-25T03:17:44.420Z,65.83
2019-04-25T03:22:47.771Z,65.85
2019-04-25T03:27:51.325Z,65.98
2019-04-25T03:32:56.205Z,66.32
2019-04-25T03:38:01.131Z,66.24
2019-04-25T03:43:06.243Z,66.34
2019-04-25T03:48:10.606Z,65.99
2019-04-25T03:53:14.165Z,65.74
2019-04-25T03:58:17.781Z,65.85
2019-04-25T04:03:21.325Z,65.76
2019-04-25T04:08:24.922Z,65.39
2019-04-25T04:13:28.481Z,65.07
2019-04-25T04:18:39.681Z,64.51
2019-04-25T04:23:44.868Z,64.16
2019-04-25T04:28:48.460Z,63.84
2019-04-25T04:33:53.133Z,63.29
2019-04-25T04:38:56.816Z,63.20
2019-04-25T04:44:00.374Z,63.15
2019-04-25T04:49:04.047Z,62.71
2019-04-25T04:54:07.626Z,62.26
2019-04-25T04:59:11.194Z,62.97
2019-04-25T05:04:17.153Z,61.00
2019-04-25T05:09:23.811Z,59.74
2019-04-25T05:14:27.523Z,57.57
2019-04-25T05:19:31.092Z,58.23
2019-04-25T05:24:34.697Z,58.21
2019-04-25T05:29:38.254Z,57.73
2019-04-25T05:34:41.824Z,56.82
2019-04-25T05:39:45.518Z,44.80
2019-04-25T05:44:49.244Z,39.57
2019-04-25T05:49:54.143Z,40.34
2019-04-25T05:54:57.899Z,36.44
2019-04-25T06:00:01.463Z,33.47
2019-04-25T06:05:07.352Z,40.27
2019-04-25T06:10:15.337Z,40.22
2019-04-25T06:15:20.490Z,34.11
2019-04-25T06:20:25.787Z,36.06
2019-04-25T06:25:34.735Z,34.22
2019-04-25T06:30:35.902Z,35.76
2019-04-25T06:35:39.479Z,32.26
2019-04-25T06:40:43.739Z,34.42
2019-04-25T06:45:50.294Z,31.98
2019-04-25T06:50:53.922Z,25.50
2019-04-25T06:55:57.535Z,25.43
2019-04-25T07:01:01.234Z,24.00
2019-04-25T07:06:05.215Z,21.41
2019-04-25T07:11:08.818Z,22.47
2019-04-25T07:16:13.395Z,22.24
2019-04-25T07:21:17.120Z,22.65
2019-04-25T07:26:39.803Z,33.44
2019-04-25T07:31:44.998Z,33.89
2019-04-25T07:36:48.904Z,35.08
2019-04-25T07:41:54.016Z,30.19
2019-04-25T07:46:58.695Z,20.47
2019-04-25T07:52:03.572Z,19.85
2019-04-25T07:57:07.385Z,18.03
2019-04-25T08:02:10.932Z,16.90
2019-04-25T08:07:14.497Z,16.14
2019-04-25T08:12:18.058Z,14.65
2019-04-25T08:17:39.919Z,13.62
2019-04-25T08:22:55.459Z,13.27
2019-04-25T08:27:48.917Z,12.63
2019-04-25T08:32:54.043Z,21.98
2019-04-25T08:37:57.843Z,14.87
2019-04-25T08:43:01.398Z,14.92
2019-04-25T08:48:05.570Z,15.00
2019-04-25T08:53:09.159Z,12.84
2019-04-25T08:58:31.289Z,12.57
2019-04-25T09:03:46.280Z,11.75
2019-04-25T09:08:49.850Z,11.90
2019-04-25T09:13:53.815Z,13.47
2019-04-25T09:18:57.467Z,13.62
2019-04-25T09:24:00.353Z,22.87
2019-04-25T09:29:16.353Z,19.20
2019-04-25T09:34:09.219Z,22.64
2019-04-25T09:39:17.350Z,23.41
2019-04-25T09:44:25.457Z,25.26
2019-04-25T09:49:30.629Z,23.81
2019-04-25T09:54:45.224Z,24.00
2019-04-25T09:59:48.820Z,24.27
2019-04-25T10:04:51.680Z,25.74
2019-04-25T10:09:56.008Z,25.95
2019-04-25T10:15:05.546Z,25.56
2019-04-25T10:20:09.109Z,25.32
2019-04-25T10:25:13.328Z,25.41
2019-04-25T10:30:23.171Z,26.03
2019-04-25T10:35:23.949Z,26.15
2019-04-25T10:40:28.120Z,26.46
2019-04-25T10:45:31.669Z,25.49
2019-04-25T10:50:35.289Z,25.72
2019-04-25T10:55:38.839Z,26.89
2019-04-25T11:00:46.114Z,26.97
2019-04-25T11:05:49.822Z,28.11
2019-04-25T11:10:54.841Z,29.04
2019-04-25T11:15:58.739Z,29.66
2019-04-25T11:21:05.700Z,29.10
2019-04-25T11:26:07.584Z,29.44
2019-04-25T11:31:14.266Z,28.40
2019-04-25T11:36:17.884Z,28.34
2019-04-25T11:41:24.264Z,28.23
2019-04-25T11:46:28.044Z,28.41
2019-04-25T11:51:31.638Z,28.79
2019-04-25T11:56:35.228Z,28.47
2019-04-25T12:01:38.788Z,29.07
2019-04-25T12:06:42.983Z,28.36
2019-04-25T12:11:48.503Z,28.97
2019-04-25T12:16:53.201Z,29.09
2019-04-25T12:21:58.233Z,29.73
2019-04-25T12:27:02.093Z,30.32
2019-04-25T12:32:06.282Z,30.93
2019-04-25T12:37:09.861Z,30.50
2019-04-25T12:42:14.458Z,31.46
2019-04-25T12:47:25.329Z,31.86
2019-04-25T12:52:28.949Z,31.85
2019-04-25T12:57:32.505Z,32.51
2019-04-25T13:02:36.600Z,31.69
2019-04-25T13:07:40.237Z,32.49
2019-04-25T13:12:44.392Z,32.42
2019-04-25T13:17:48.061Z,31.92
2019-04-25T13:22:52.868Z,31.84
2019-04-25T13:27:58.582Z,31.22
2019-04-25T13:33:20.056Z,30.40
2019-04-25T13:38:23.654Z,30.99
2019-04-25T13:43:27.251Z,30.57
2019-04-25T13:48:30.801Z,29.92
2019-04-25T13:53:34.395Z,30.53
2019-04-25T13:58:37.969Z,31.33
2019-04-25T14:03:41.551Z,32.95
2019-04-25T14:08:45.531Z,32.75
2019-04-25T14:13:49.097Z,32.92
2019-04-25T14:19:10.864Z,32.57
2019-04-25T14:24:20.517Z,33.17
2019-04-25T14:29:21.449Z,32.81
2019-04-25T14:34:26.576Z,32.53
2019-04-25T14:39:30.501Z,31.36
2019-04-25T14:44:34.042Z,32.78
2019-04-25T14:49:37.611Z,32.95
2019-04-25T14:54:58.948Z,32.25
2019-04-25T15:00:04.778Z,31.94
2019-04-25T15:05:08.523Z,32.13
2019-04-25T15:10:12.094Z,31.48
2019-04-25T15:15:16.290Z,31.36
2019-04-25T15:20:19.846Z,31.28
2019-04-25T15:25:23.441Z,31.24
2019-04-25T15:30:33.094Z,31.84
2019-04-25T15:35:53.355Z,31.87
2019-04-25T15:41:01.855Z,32.36
2019-04-25T15:46:07.029Z,32.57
2019-04-25T15:51:10.586Z,31.84
2019-04-25T15:56:14.155Z,31.88
2019-04-25T16:01:17.828Z,31.88
2019-04-25T16:06:21.536Z,32.67
2019-04-25T16:11:26.552Z,32.77
2019-04-25T16:16:30.380Z,33.10
2019-04-25T16:21:33.908Z,33.23
2019-04-25T16:26:37.527Z,34.03
2019-04-25T16:31:41.239Z,34.00
2019-04-25T16:36:44.906Z,34.24
2019-04-25T16:41:48.534Z,34.98
2019-04-25T16:46:52.192Z,35.28
2019-04-25T16:51:55.794Z,35.21
2019-04-25T16:56:59.352Z,36.11
2019-04-25T17:02:03.628Z,36.11
2019-04-25T17:07:08.428Z,35.55
2019-04-25T17:12:13.028Z,36.41
2019-04-25T17:17:27.155Z,36.79
2019-04-25T17:22:33.065Z,36.62
2019-04-25T17:27:37.541Z,37.41
2019-04-25T17:32:53.906Z,37.93
2019-04-25T17:38:01.839Z,38.24
2019-04-25T17:43:11.081Z,38.72
2019-04-25T17:48:10.729Z,39.20
2019-04-25T17:53:14.343Z,39.80
2019-04-25T17:58:17.946Z,40.74
2019-04-25T18:03:21.605Z,41.20
2019-04-25T18:08:25.183Z,41.56
2019-04-25T18:13:28.746Z,42.58
2019-04-25T18:18:35.355Z,42.34
2019-04-25T18:23:52.807Z,42.70
2019-04-25T18:28:57.945Z,43.33
2019-04-25T18:34:03.089Z,42.77
2019-04-25T18:39:08.267Z,42.48
2019-04-25T18:44:13.398Z,43.19
2019-04-25T18:49:17.081Z,43.06
2019-04-25T18:54:25.612Z,43.04
2019-04-25T18:59:46.022Z,43.81
2019-04-25T19:04:57.598Z,43.86
2019-04-25T19:10:01.292Z,43.65
2019-04-25T19:15:05.647Z,43.77
2019-04-25T19:20:09.211Z,43.85
2019-04-25T19:25:12.976Z,43.83
2019-04-25T19:30:18.194Z,44.21
2019-04-25T19:35:21.761Z,44.45
2019-04-25T19:40:39.625Z,44.75
2019-04-25T19:45:44.850Z,45.25
2019-04-25T19:50:48.638Z,45.59
2019-04-25T19:55:52.240Z,46.09
2019-04-25T20:00:56.460Z,46.36
2019-04-25T20:06:07.592Z,46.37
2019-04-25T20:11:12.737Z,46.26
2019-04-25T20:16:16.396Z,46.30
2019-04-25T20:21:19.940Z,46.25
2019-04-25T20:26:23.517Z,46.20
2019-04-25T20:31:27.080Z,46.52
2019-04-25T20:36:30.737Z,47.91
2019-04-25T20:41:34.413Z,48.96
2019-04-25T20:46:37.985Z,49.32
2019-04-25T20:51:41.606Z,49.66
2019-04-25T20:56:45.153Z,49.93
2019-04-25T21:01:49.665Z,50.07
2019-04-25T21:06:53.674Z,50.23
2019-04-25T21:11:58.099Z,50.30
2019-04-25T21:17:03.441Z,50.73
2019-04-25T21:22:07.211Z,50.90
2019-04-25T21:27:10.834Z,50.58
2019-04-25T21:32:16.231Z,51.15
2019-04-25T21:37:19.966Z,51.72
2019-04-25T21:42:28.671Z,52.00
2019-04-25T21:47:33.299Z,52.17
2019-04-25T21:52:37.017Z,52.21
2019-04-25T21:57:41.004Z,52.83
2019-04-25T22:02:44.730Z,52.77
2019-04-25T22:07:48.525Z,52.98
2019-04-25T22:12:52.380Z,53.33
2019-04-25T22:17:56.815Z,53.27
2019-04-25T22:23:00.483Z,53.63
2019-04-25T22:28:05.118Z,53.69
2019-04-25T22:33:16.941Z,53.78
2019-04-25T22:38:20.500Z,53.85
2019-04-25T22:43:24.071Z,53.83
2019-04-25T22:48:41.902Z,53.99
2019-04-25T22:53:46.290Z,54.25
2019-04-25T22:58:49.873Z,55.01
2019-04-25T23:04:14.042Z,54.76
2019-04-25T23:09:17.997Z,54.86
2019-04-25T23:14:21.766Z,55.63
2019-04-25T23:19:25.319Z,55.29
2019-04-25T23:24:30.676Z,55.65
2019-04-25T23:29:34.510Z,55.57
2019-04-25T23:34:38.087Z,55.67
2019-04-25T23:39:41.697Z,55.98
2019-04-25T23:44:45.285Z,55.72
2019-04-25T23:49:48.879Z,55.79
2019-04-25T23:54:52.729Z,55.54
2019-04-25T23:59:56.679Z,55.66
